Terminal Aerodrome Forecast
Issued by NWS

Home | Current Version | Previous Version | Text Only | Print | Product List | Glossary On
Versions: 1 2 3 4 5 6 7 8 9 10 11 12 13 14 15 16 17 18 19 20 21 22 23 24 25 26 27 28 29 30
002
FTUS41 KRNK 261140
TAFBCB
TAF
KBCB 261140Z 2612/2712 00000KT P6SM FEW015 SCT045 BKN100
     FM261400 VRB03KT P6SM BKN035 OVC080
     FM261500 22004KT P6SM VCSH OVC050
      TEMPO 2618/2622 4SM TSRA OVC030CB
     FM262200 16004KT P6SM -SHRA BKN050 OVC120
     FM270300 21003KT P6SM SCT020 OVC150=

USA.gov is the U.S. government's official web portal to all federal, state and local government web resources and services.